createdAt,value
2023-10-14T00:01:35.833Z,0.47
2023-10-14T00:04:05.820Z,0.37
2023-10-14T00:06:40.128Z,0.40
2023-10-14T00:09:13.498Z,0.40
2023-10-14T00:11:52.042Z,0.53
2023-10-14T00:14:20.012Z,0.53
2023-10-14T00:16:53.445Z,0.40
2023-10-14T00:19:22.740Z,0.60
2023-10-14T00:21:51.641Z,0.40
2023-10-14T00:24:29.315Z,0.80
2023-10-14T00:26:58.914Z,0.68
2023-10-14T00:29:26.772Z,0.50
2023-10-14T00:31:53.654Z,0.40
2023-10-14T00:34:24.353Z,0.55
2023-10-14T00:36:51.525Z,0.40
2023-10-14T00:39:18.413Z,0.40
2023-10-14T00:41:47.727Z,0.40
2023-10-14T00:44:14.226Z,1.02
2023-10-14T00:46:44.671Z,0.70
2023-10-14T00:49:12.513Z,0.73
2023-10-14T00:51:43.662Z,0.40
2023-10-14T00:54:19.745Z,0.80
2023-10-14T00:56:47.906Z,1.10
2023-10-14T00:59:16.225Z,0.50
2023-10-14T01:01:59.923Z,0.00
2023-10-14T01:04:40.910Z,0.00
2023-10-14T01:07:14.058Z,0.00
2023-10-14T01:09:41.976Z,0.00
2023-10-14T01:12:18.206Z,0.00
2023-10-14T01:14:45.891Z,0.00
2023-10-14T01:17:23.106Z,0.00
2023-10-14T01:19:51.286Z,0.00
2023-10-14T01:22:17.952Z,0.00
2023-10-14T01:24:44.664Z,0.00
2023-10-14T01:27:12.178Z,0.00
2023-10-14T01:29:42.551Z,0.00
2023-10-14T01:32:49.155Z,0.00
2023-10-14T01:35:32.421Z,0.00
2023-10-14T01:38:00.959Z,0.00
2023-10-14T01:40:35.762Z,0.00
2023-10-14T01:43:11.432Z,0.00
2023-10-14T01:46:06.326Z,0.00
2023-10-14T01:48:32.862Z,0.00
2023-10-14T01:50:59.702Z,0.00
2023-10-14T01:53:29.524Z,0.00
2023-10-14T01:56:02.905Z,0.00
2023-10-14T01:58:31.914Z,0.00
2023-10-14T02:01:21.408Z,0.00
2023-10-14T02:03:50.206Z,0.00
2023-10-14T02:06:19.328Z,0.00
2023-10-14T02:08:47.069Z,0.00
2023-10-14T02:11:17.057Z,0.00
2023-10-14T02:13:43.740Z,0.00
2023-10-14T02:16:10.159Z,0.00
2023-10-14T02:18:40.362Z,0.00
2023-10-14T02:21:09.462Z,0.00
2023-10-14T02:23:46.870Z,0.00
2023-10-14T02:26:25.238Z,0.00
2023-10-14T02:28:56.383Z,0.00
2023-10-14T02:31:29.633Z,0.00
2023-10-14T02:33:57.776Z,0.00
2023-10-14T02:36:34.703Z,0.00
2023-10-14T02:39:01.232Z,0.00
2023-10-14T02:41:27.927Z,0.00
2023-10-14T02:44:02.269Z,0.00
2023-10-14T02:46:28.896Z,0.00
2023-10-14T02:48:55.899Z,0.00
2023-10-14T02:51:51.768Z,0.00
2023-10-14T02:54:35.070Z,0.00
2023-10-14T02:57:13.832Z,0.00
2023-10-14T02:59:44.059Z,0.00
2023-10-14T03:02:26.107Z,0.00
2023-10-14T03:04:55.405Z,0.00
2023-10-14T03:07:32.610Z,0.00
2023-10-14T03:10:27.359Z,0.00
2023-10-14T03:12:53.760Z,0.00
2023-10-14T03:15:22.503Z,0.00
2023-10-14T03:18:05.672Z,0.00
2023-10-14T03:20:41.303Z,0.00
2023-10-14T03:23:20.656Z,0.00
2023-10-14T03:25:50.635Z,0.00
2023-10-14T03:28:21.106Z,0.00
2023-10-14T03:30:56.935Z,0.00
2023-10-14T03:33:29.074Z,0.00
2023-10-14T03:36:06.458Z,0.00
2023-10-14T03:38:36.820Z,0.00
2023-10-14T03:41:11.614Z,0.00
2023-10-14T03:43:57.773Z,0.00
2023-10-14T03:46:32.683Z,0.00
2023-10-14T03:49:09.658Z,0.00
2023-10-14T03:51:38.181Z,0.00
2023-10-14T03:54:11.043Z,0.00
2023-10-14T03:56:39.325Z,0.00
2023-10-14T03:59:07.192Z,0.00
2023-10-14T04:01:40.783Z,0.00
2023-10-14T04:04:20.082Z,0.00
2023-10-14T04:06:53.260Z,0.00
2023-10-14T04:09:25.127Z,0.00
2023-10-14T04:12:01.544Z,0.00
2023-10-14T04:14:29.191Z,0.00
2023-10-14T04:17:11.641Z,0.00
2023-10-14T04:19:46.060Z,0.00
2023-10-14T04:22:25.609Z,0.00
2023-10-14T04:25:14.213Z,0.00
2023-10-14T04:27:54.279Z,0.00
2023-10-14T04:30:26.063Z,0.00
2023-10-14T04:32:55.323Z,0.00
2023-10-14T04:35:25.624Z,0.00
2023-10-14T04:37:53.173Z,0.00
2023-10-14T04:40:35.776Z,0.00
2023-10-14T04:43:18.804Z,0.00
2023-10-14T04:45:58.398Z,0.00
2023-10-14T04:48:30.522Z,0.00
2023-10-14T04:50:59.593Z,0.00
2023-10-14T04:53:27.859Z,0.00
2023-10-14T04:55:55.392Z,0.00
2023-10-14T04:58:26.786Z,0.00
2023-10-14T05:00:54.006Z,0.00
2023-10-14T05:03:24.067Z,0.00
2023-10-14T05:05:57.181Z,0.00
2023-10-14T05:08:28.737Z,0.00
2023-10-14T05:10:55.339Z,0.00
2023-10-14T05:13:34.643Z,0.00
2023-10-14T05:16:17.161Z,0.00
2023-10-14T05:18:59.263Z,0.00
2023-10-14T05:21:45.131Z,0.00
2023-10-14T05:24:13.389Z,0.00
2023-10-14T05:26:47.791Z,0.00
2023-10-14T05:29:20.477Z,0.00
2023-10-14T05:31:48.850Z,0.00
2023-10-14T05:34:18.868Z,0.00
2023-10-14T05:36:53.591Z,0.00
2023-10-14T05:39:22.053Z,0.00
2023-10-14T05:41:49.701Z,0.00
2023-10-14T05:44:16.322Z,0.00
2023-10-14T05:46:43.175Z,0.00
2023-10-14T05:49:09.783Z,0.00
2023-10-14T05:51:38.126Z,0.00
2023-10-14T05:54:05.102Z,0.00
2023-10-14T05:56:31.577Z,0.00
2023-10-14T05:59:01.665Z,0.00
2023-10-14T06:01:28.129Z,0.00
2023-10-14T06:03:54.664Z,0.00
2023-10-14T06:06:22.990Z,0.00
2023-10-14T06:08:50.947Z,0.00
2023-10-14T06:11:20.491Z,0.00
2023-10-14T06:13:46.816Z,0.00
2023-10-14T06:16:15.505Z,0.00
2023-10-14T06:18:45.093Z,0.00
2023-10-14T06:21:12.977Z,0.00
2023-10-14T06:23:48.499Z,0.00
2023-10-14T06:26:18.852Z,0.00
2023-10-14T06:28:46.346Z,0.00
2023-10-14T06:31:14.070Z,0.00
2023-10-14T06:33:45.213Z,0.00
2023-10-14T06:36:15.538Z,0.00
2023-10-14T06:38:45.831Z,0.00
2023-10-14T06:41:18.201Z,0.00
2023-10-14T06:43:48.819Z,0.00
2023-10-14T06:46:17.626Z,0.00
2023-10-14T06:48:45.616Z,0.00
2023-10-14T06:51:12.751Z,0.00
2023-10-14T06:53:40.316Z,0.00
2023-10-14T06:56:07.057Z,0.00
2023-10-14T06:58:34.506Z,0.00
2023-10-14T07:01:01.187Z,0.00
2023-10-14T07:03:30.235Z,0.00
2023-10-14T07:05:57.149Z,0.00
2023-10-14T07:08:30.989Z,0.00
2023-10-14T07:10:57.700Z,0.00
2023-10-14T07:13:25.037Z,0.00
2023-10-14T07:15:52.852Z,0.00
2023-10-14T07:18:27.088Z,0.00
2023-10-14T07:21:04.351Z,0.00
2023-10-14T07:23:35.267Z,0.00
2023-10-14T07:26:13.687Z,0.00
2023-10-14T07:28:44.431Z,0.00
2023-10-14T07:31:13.880Z,0.00
2023-10-14T07:33:42.228Z,0.00
2023-10-14T07:36:08.897Z,0.00
2023-10-14T07:38:36.251Z,0.00
2023-10-14T07:41:04.118Z,0.00
2023-10-14T07:43:30.808Z,0.00
2023-10-14T07:45:59.641Z,0.00
2023-10-14T07:48:27.605Z,0.00
2023-10-14T07:50:57.379Z,0.00
2023-10-14T07:53:24.239Z,0.00
2023-10-14T07:55:57.635Z,0.00
2023-10-14T07:58:26.954Z,0.00
2023-10-14T08:00:56.078Z,0.00
2023-10-14T08:03:25.391Z,0.00
2023-10-14T08:05:54.864Z,0.00
2023-10-14T08:08:23.638Z,0.00
2023-10-14T08:10:51.876Z,0.00
2023-10-14T08:13:22.572Z,0.00
2023-10-14T08:15:53.642Z,0.00
2023-10-14T08:18:24.501Z,0.00
2023-10-14T08:20:54.823Z,0.00
2023-10-14T08:23:25.118Z,0.00
2023-10-14T08:25:55.528Z,0.00
2023-10-14T08:28:22.874Z,0.00
2023-10-14T08:30:52.001Z,0.00
2023-10-14T08:33:21.224Z,0.00
2023-10-14T08:35:49.618Z,0.00
2023-10-14T08:38:20.481Z,0.00
2023-10-14T08:40:50.579Z,0.00
2023-10-14T08:43:21.330Z,0.00
2023-10-14T08:45:52.259Z,0.00
2023-10-14T08:48:25.161Z,0.00
2023-10-14T08:51:00.419Z,0.00
2023-10-14T08:53:27.792Z,0.00
2023-10-14T08:55:55.327Z,0.00
2023-10-14T08:58:23.983Z,0.00
2023-10-14T09:00:55.146Z,0.00
2023-10-14T09:03:21.934Z,0.00
2023-10-14T09:05:48.357Z,0.00
2023-10-14T09:08:22.816Z,0.00
2023-10-14T09:10:50.834Z,0.00
2023-10-14T09:13:21.502Z,0.00
2023-10-14T09:15:49.699Z,0.00
2023-10-14T09:18:28.955Z,0.00
2023-10-14T09:21:00.194Z,0.00
2023-10-14T09:23:28.874Z,0.00
2023-10-14T09:26:01.903Z,0.00
2023-10-14T09:28:30.752Z,0.00
2023-10-14T09:30:58.605Z,0.00
2023-10-14T09:33:35.548Z,0.00
2023-10-14T09:36:05.911Z,0.00
2023-10-14T09:38:33.882Z,0.00
2023-10-14T09:41:05.828Z,0.00
2023-10-14T09:43:40.708Z,0.00
2023-10-14T09:46:13.861Z,0.00
2023-10-14T09:48:41.594Z,0.00
2023-10-14T09:51:09.299Z,0.00
2023-10-14T09:53:37.169Z,0.00
2023-10-14T09:56:18.805Z,0.00
2023-10-14T09:58:50.137Z,0.00
2023-10-14T10:01:18.568Z,0.00
2023-10-14T10:03:53.355Z,0.00
2023-10-14T10:06:36.909Z,0.00
2023-10-14T10:09:48.947Z,0.00
2023-10-14T10:12:17.356Z,0.00
2023-10-14T10:14:44.842Z,0.00
2023-10-14T10:17:13.063Z,0.00
2023-10-14T10:20:02.800Z,0.00
2023-10-14T10:22:45.897Z,0.00
2023-10-14T10:25:16.620Z,0.00
2023-10-14T10:27:44.025Z,0.00
2023-10-14T10:30:15.978Z,0.00
2023-10-14T10:32:48.078Z,0.00
2023-10-14T10:35:17.581Z,0.00
2023-10-14T10:37:55.974Z,0.00
2023-10-14T10:40:27.612Z,0.00
2023-10-14T10:43:08.155Z,0.00
2023-10-14T10:45:35.904Z,0.00
2023-10-14T10:48:07.414Z,0.00
2023-10-14T10:50:36.469Z,0.00
2023-10-14T10:53:09.283Z,0.00
2023-10-14T10:55:43.070Z,0.00
2023-10-14T10:58:13.857Z,0.00
2023-10-14T11:00:42.131Z,0.00
2023-10-14T11:03:14.838Z,0.00
2023-10-14T11:05:47.093Z,0.00
2023-10-14T11:08:17.530Z,0.00
2023-10-14T11:10:45.543Z,0.00
2023-10-14T11:13:14.267Z,0.00
2023-10-14T11:15:42.033Z,0.00
2023-10-14T11:18:20.142Z,0.00
2023-10-14T11:20:54.588Z,0.00
2023-10-14T11:23:21.573Z,0.00
2023-10-14T11:25:51.530Z,0.00
2023-10-14T11:28:18.258Z,0.00
2023-10-14T11:30:49.090Z,0.00
2023-10-14T11:33:19.057Z,0.00
2023-10-14T11:35:50.827Z,0.00
2023-10-14T11:38:17.202Z,0.00
2023-10-14T11:40:51.290Z,0.00
2023-10-14T11:43:19.057Z,0.00
2023-10-14T11:45:45.560Z,0.00
2023-10-14T11:48:44.946Z,0.00
2023-10-14T11:51:14.262Z,0.00
2023-10-14T11:53:44.977Z,0.00
2023-10-14T11:56:15.006Z,0.00
2023-10-14T11:58:42.152Z,0.00
2023-10-14T12:01:10.755Z,0.00
2023-10-14T12:03:38.261Z,0.00
2023-10-14T12:06:09.044Z,0.00
2023-10-14T12:08:40.403Z,0.00
2023-10-14T12:11:09.932Z,0.00
2023-10-14T12:13:49.399Z,0.00
2023-10-14T12:16:18.530Z,0.00
2023-10-14T12:18:47.666Z,0.00
2023-10-14T12:21:15.728Z,0.00
2023-10-14T12:23:42.372Z,0.00
2023-10-14T12:26:26.965Z,0.00
2023-10-14T12:28:58.945Z,0.00
2023-10-14T12:31:35.373Z,0.00
2023-10-14T12:34:04.118Z,0.00
2023-10-14T12:36:30.541Z,0.00
2023-10-14T12:38:56.917Z,0.00
2023-10-14T12:41:23.416Z,0.00
2023-10-14T12:43:52.331Z,0.00
2023-10-14T12:46:18.764Z,0.00
2023-10-14T12:48:52.560Z,0.00
2023-10-14T12:51:22.814Z,0.00
2023-10-14T12:53:49.704Z,0.00
2023-10-14T12:56:18.213Z,0.00
2023-10-14T12:58:45.484Z,0.00
2023-10-14T13:01:23.782Z,0.00
2023-10-14T13:03:58.022Z,0.00
2023-10-14T13:06:27.492Z,0.00
2023-10-14T13:09:00.348Z,0.00
2023-10-14T13:11:29.911Z,0.00
2023-10-14T13:13:57.427Z,0.00
2023-10-14T13:16:26.412Z,0.00
2023-10-14T13:18:58.183Z,0.00
2023-10-14T13:21:30.161Z,0.00
2023-10-14T13:23:57.897Z,0.00
2023-10-14T13:26:25.139Z,0.00
2023-10-14T13:28:51.717Z,0.00
2023-10-14T13:31:19.105Z,0.00
2023-10-14T13:33:49.593Z,0.00
2023-10-14T13:36:17.224Z,0.00
2023-10-14T13:38:46.934Z,0.00
2023-10-14T13:41:15.812Z,0.00
2023-10-14T13:43:43.928Z,0.00
2023-10-14T13:46:10.935Z,0.00
2023-10-14T13:48:40.068Z,0.00
2023-10-14T13:51:06.973Z,0.00
2023-10-14T13:53:36.618Z,0.00
2023-10-14T13:56:06.221Z,0.00
2023-10-14T13:58:36.599Z,0.00
2023-10-14T14:01:08.775Z,0.00
2023-10-14T14:03:38.245Z,0.00
2023-10-14T14:06:08.161Z,0.00
2023-10-14T14:08:34.829Z,0.00
2023-10-14T14:11:04.869Z,0.00
2023-10-14T14:13:32.355Z,0.00
2023-10-14T14:16:01.902Z,0.00
2023-10-14T14:18:28.340Z,0.00
2023-10-14T14:20:54.746Z,0.00
2023-10-14T14:23:23.173Z,0.00
2023-10-14T14:25:50.464Z,0.00
2023-10-14T14:28:16.982Z,0.00
2023-10-14T14:30:43.404Z,0.00
2023-10-14T14:33:10.976Z,0.00
2023-10-14T14:35:39.062Z,0.00
2023-10-14T14:38:06.596Z,0.00
2023-10-14T14:40:33.463Z,0.00
2023-10-14T14:43:00.612Z,0.00
2023-10-14T14:45:29.406Z,0.00
2023-10-14T14:48:00.229Z,0.00
2023-10-14T14:50:35.399Z,0.00
2023-10-14T14:53:03.846Z,0.00
2023-10-14T14:55:32.222Z,0.00
2023-10-14T14:57:59.403Z,0.00
2023-10-14T15:00:27.681Z,0.00
2023-10-14T15:03:01.321Z,0.00
2023-10-14T15:05:35.598Z,0.00
2023-10-14T15:08:04.052Z,0.00
2023-10-14T15:10:34.040Z,0.00
2023-10-14T15:13:04.174Z,0.00
2023-10-14T15:15:31.252Z,0.00
2023-10-14T15:17:57.763Z,0.00
2023-10-14T15:20:24.431Z,0.00
2023-10-14T15:22:53.315Z,0.00
2023-10-14T15:25:23.109Z,0.00
2023-10-14T15:27:49.509Z,0.00
2023-10-14T15:30:17.782Z,0.00
2023-10-14T15:32:46.719Z,0.00
2023-10-14T15:35:15.112Z,0.00
2023-10-14T15:37:49.188Z,0.00
2023-10-14T15:40:18.828Z,0.00
2023-10-14T15:42:51.355Z,0.00
2023-10-14T15:45:25.145Z,0.00
2023-10-14T15:47:58.119Z,0.00
2023-10-14T15:50:26.407Z,0.00
2023-10-14T15:52:56.117Z,0.00
2023-10-14T15:55:24.915Z,0.00
2023-10-14T15:57:58.744Z,0.00
2023-10-14T16:00:35.416Z,0.00
2023-10-14T16:03:10.482Z,0.00
2023-10-14T16:05:42.666Z,0.00
2023-10-14T16:08:15.115Z,0.00
2023-10-14T16:10:44.879Z,0.00
2023-10-14T16:13:11.711Z,0.00
2023-10-14T16:15:38.133Z,0.00
2023-10-14T16:18:07.181Z,0.00
2023-10-14T16:20:33.587Z,0.00
2023-10-14T16:23:04.839Z,0.00
2023-10-14T16:25:31.366Z,0.00
2023-10-14T16:27:59.221Z,0.00
2023-10-14T16:30:28.950Z,0.00
2023-10-14T16:32:57.729Z,0.00
2023-10-14T16:35:29.022Z,0.00
2023-10-14T16:37:59.472Z,0.00
2023-10-14T16:40:29.276Z,0.00
2023-10-14T16:42:59.742Z,0.00
2023-10-14T16:45:27.498Z,0.00
2023-10-14T16:47:57.376Z,0.00
2023-10-14T16:50:27.840Z,0.00
2023-10-14T16:52:56.158Z,0.00
2023-10-14T16:55:23.156Z,0.00
2023-10-14T16:57:51.055Z,0.00
2023-10-14T17:00:24.043Z,0.00
2023-10-14T17:02:53.206Z,0.00
2023-10-14T17:05:22.548Z,0.00
2023-10-14T17:07:50.861Z,0.00
2023-10-14T17:10:19.250Z,0.00
2023-10-14T17:12:47.883Z,0.00
2023-10-14T17:15:25.617Z,0.00
2023-10-14T17:17:55.860Z,0.00
2023-10-14T17:20:23.646Z,0.00
2023-10-14T17:22:54.892Z,0.00
2023-10-14T17:25:22.794Z,0.00
2023-10-14T17:27:50.124Z,0.00
2023-10-14T17:30:17.231Z,0.00
2023-10-14T17:32:47.033Z,0.00
2023-10-14T17:35:16.554Z,0.00
2023-10-14T17:37:50.454Z,0.00
2023-10-14T17:40:19.070Z,0.00
2023-10-14T17:42:52.185Z,0.00
2023-10-14T17:45:20.368Z,0.00
2023-10-14T17:47:50.225Z,0.00
2023-10-14T17:50:22.977Z,0.00
2023-10-14T17:52:52.179Z,0.00
2023-10-14T17:55:23.725Z,0.00
2023-10-14T17:57:52.803Z,0.00
2023-10-14T18:00:35.351Z,0.00
2023-10-14T18:03:12.867Z,0.00
2023-10-14T18:05:48.670Z,0.00
2023-10-14T18:08:16.599Z,0.00
2023-10-14T18:10:44.126Z,0.00
2023-10-14T18:13:12.446Z,0.00
2023-10-14T18:15:41.682Z,0.00
2023-10-14T18:18:09.832Z,0.00
2023-10-14T18:20:37.939Z,0.00
2023-10-14T18:23:06.898Z,0.00
2023-10-14T18:25:58.841Z,0.00
2023-10-14T18:28:25.579Z,0.00
2023-10-14T18:30:52.896Z,0.00
2023-10-14T18:33:20.864Z,0.00
2023-10-14T18:35:48.222Z,0.00
2023-10-14T18:38:15.510Z,0.00
2023-10-14T18:40:46.375Z,0.00
2023-10-14T18:43:15.497Z,0.00
2023-10-14T18:45:43.682Z,0.00
2023-10-14T18:48:10.562Z,0.00
2023-10-14T18:50:43.217Z,0.00
2023-10-14T18:53:12.299Z,0.00
2023-10-14T18:55:40.635Z,0.00
2023-10-14T18:58:10.971Z,0.00
2023-10-14T19:00:42.085Z,0.00
2023-10-14T19:03:08.813Z,0.00
2023-10-14T19:05:35.524Z,0.00
2023-10-14T19:08:04.292Z,0.00
2023-10-14T19:10:33.448Z,0.00
2023-10-14T19:13:01.834Z,0.00
2023-10-14T19:15:33.147Z,0.00
2023-10-14T19:18:10.536Z,0.00
2023-10-14T19:20:41.222Z,0.00
2023-10-14T19:23:07.821Z,0.00
2023-10-14T19:25:39.040Z,0.00
2023-10-14T19:28:10.176Z,0.00
2023-10-14T19:30:37.722Z,0.00
2023-10-14T19:33:04.535Z,0.00
2023-10-14T19:35:32.450Z,0.00
2023-10-14T19:37:59.005Z,0.00
2023-10-14T19:40:25.910Z,0.00
2023-10-14T19:42:55.290Z,0.00
2023-10-14T19:45:22.623Z,0.00
2023-10-14T19:47:49.287Z,0.00
2023-10-14T19:50:17.217Z,0.00
2023-10-14T19:52:47.776Z,0.00
2023-10-14T19:55:29.365Z,0.00
2023-10-14T19:57:59.074Z,0.00
2023-10-14T20:00:28.896Z,0.00
2023-10-14T20:03:02.630Z,0.00
2023-10-14T20:05:36.597Z,0.00
2023-10-14T20:08:05.433Z,0.00
2023-10-14T20:10:41.621Z,0.00
2023-10-14T20:13:12.860Z,0.00
2023-10-14T20:15:41.892Z,0.00
2023-10-14T20:18:20.400Z,0.00
2023-10-14T20:20:50.032Z,0.00
2023-10-14T20:23:18.051Z,0.00
2023-10-14T20:25:44.511Z,0.00
2023-10-14T20:28:17.069Z,0.00
2023-10-14T20:30:45.289Z,0.00
2023-10-14T20:33:12.410Z,0.00
2023-10-14T20:35:42.629Z,0.00
2023-10-14T20:38:13.448Z,0.00
2023-10-14T20:40:47.595Z,0.00
2023-10-14T20:43:14.913Z,0.00
2023-10-14T20:45:42.653Z,0.00
2023-10-14T20:48:09.524Z,0.00
2023-10-14T20:50:38.850Z,0.00
2023-10-14T20:53:06.058Z,0.00
2023-10-14T20:55:33.650Z,0.00
2023-10-14T20:58:04.931Z,0.00
2023-10-14T21:00:37.685Z,0.00
2023-10-14T21:03:09.298Z,0.00
2023-10-14T21:05:40.159Z,0.00
2023-10-14T21:08:14.669Z,0.00
2023-10-14T21:10:46.159Z,0.00
2023-10-14T21:13:14.654Z,0.00
2023-10-14T21:15:41.270Z,0.00
2023-10-14T21:18:09.265Z,0.00
2023-10-14T21:20:42.622Z,0.00
2023-10-14T21:23:10.723Z,0.00
2023-10-14T21:25:40.400Z,0.00
2023-10-14T21:28:07.510Z,0.00
2023-10-14T21:30:37.072Z,0.00
2023-10-14T21:33:05.916Z,0.00
2023-10-14T21:35:33.944Z,0.00
2023-10-14T21:38:04.986Z,0.00
2023-10-14T21:40:32.448Z,0.00
2023-10-14T21:43:00.227Z,0.00
2023-10-14T21:45:37.894Z,0.00
2023-10-14T21:48:06.771Z,0.00
2023-10-14T21:50:33.538Z,0.00
2023-10-14T21:53:03.952Z,0.00
2023-10-14T21:55:30.650Z,0.00
2023-10-14T21:58:00.077Z,0.00
2023-10-14T22:00:39.380Z,0.00
2023-10-14T22:03:13.117Z,0.00
2023-10-14T22:05:41.796Z,0.00
2023-10-14T22:08:18.917Z,0.00
2023-10-14T22:10:51.320Z,0.00
2023-10-14T22:13:18.155Z,0.00
2023-10-14T22:15:46.743Z,0.00
2023-10-14T22:18:14.353Z,0.00
2023-10-14T22:20:41.966Z,0.00
2023-10-14T22:23:09.694Z,0.00
2023-10-14T22:25:36.713Z,0.00
2023-10-14T22:28:12.886Z,0.00
2023-10-14T22:30:40.799Z,0.00
2023-10-14T22:33:08.497Z,0.00
2023-10-14T22:35:37.727Z,0.00
2023-10-14T22:38:06.589Z,0.00
2023-10-14T22:40:35.325Z,0.00
2023-10-14T22:43:09.918Z,0.00
2023-10-14T22:45:37.793Z,0.00
2023-10-14T22:48:06.543Z,0.00
2023-10-14T22:50:33.310Z,0.00
2023-10-14T22:53:00.430Z,0.00
2023-10-14T22:55:27.914Z,0.00
2023-10-14T22:57:56.479Z,0.00
2023-10-14T23:00:27.023Z,0.00
2023-10-14T23:02:56.818Z,0.00
2023-10-14T23:05:31.787Z,0.00
2023-10-14T23:08:01.153Z,0.00
2023-10-14T23:10:30.686Z,0.00
2023-10-14T23:12:57.572Z,0.00
2023-10-14T23:15:30.531Z,0.00
2023-10-14T23:17:59.342Z,0.00
2023-10-14T23:20:27.924Z,0.00
2023-10-14T23:22:55.836Z,0.00
2023-10-14T23:25:24.955Z,0.00
2023-10-14T23:27:54.834Z,0.00
2023-10-14T23:30:23.610Z,0.00
2023-10-14T23:33:05.270Z,0.00
2023-10-14T23:35:32.129Z,0.00
2023-10-14T23:38:02.497Z,0.00
2023-10-14T23:40:32.996Z,0.00
2023-10-14T23:43:01.998Z,0.00
2023-10-14T23:45:32.062Z,0.00
2023-10-14T23:47:59.475Z,0.00
2023-10-14T23:50:26.145Z,0.00
2023-10-14T23:52:53.956Z,0.00
2023-10-14T23:55:26.940Z,0.00
2023-10-14T23:57:57.338Z,0.00
